Kathy C — 2CTI7 — position and weather

sailwx.info

Track history (hours):
 
Tides and Currents Weather Stations Pressure Air Temp Water Temp Dewpoint Dewpoint Depression Visibility Wind Speed Wind Dir Waves Ship Positions

Kathy C

Last reported at 2015-May-28 13:33 UTC. Time now 2015-May-28 14:08 UTC.
Position N 50°20' W 004°10'.

Length 106 m; draft 4.3 m.

Type: Cargo ship. MMSI: 235075591.

Date/timePositionNaut miles runAvg speedWind from/ knotsBaromVisibWave heightAir tempDewpointWater temp
2015-May-28 13:33N 50°20' W 004°10'2 2.0
2015-May-28 12:32N 50°22' W 004°08'0 0.0
2015-May-28 11:32N 50°22' W 004°08'0 0.0
2015-May-28 10:32N 50°22' W 004°08'0 0.0
2015-May-28 09:32N 50°22' W 004°08'1 0.8
2015-May-28 08:33N 50°21' W 004°08'10711.8
2015-May-27 23:33N 48°49' W 005°31'1312.7
2015-May-27 22:33N 48°39' W 005°43'1313.0
2015-May-27 21:33N 48°28' W 005°52'1313.0
2015-May-27 20:33N 48°16' W 006°01'1312.6
2015-May-27 19:33N 48°05' W 006°09'2512.4
2015-May-27 17:33N 47°43' W 006°27'1211.7
2015-May-27 16:33N 47°33' W 006°35'477 9.7
2015-May-25 15:33N 40°09' W 010°39'1010.3
2015-May-25 14:33N 40°00' W 010°46'1110.5
2015-May-25 13:32N 39°51' W 010°53'39 9.7
2015-May-25 09:30N 39°14' W 011°08'8 8.9
2015-May-25 08:33N 39°06' W 011°12'68 7.4
2015-May-24 23:28N 37°59' W 011°25'8 8.4
2015-May-24 22:33N 37°52' W 011°28'31 9.2
2015-May-24 19:09N 37°22' W 011°40'193 7.5
2015-May-23 17:27N 34°19' W 012°55'  
Track history (hours):
 
Tides and Currents Weather Stations Pressure Air Temp Water Temp Dewpoint Dewpoint Depression Visibility Wind Speed Wind Dir Waves Ship Positions

Kathy C

Last reported at 2015-May-28 13:33 UTC. Time now 2015-May-28 14:08 UTC.
Position N 50°20' W 004°10'.

Length 106 m; draft 4.3 m.

Type: Cargo ship. MMSI: 235075591.

Date/timePositionNaut miles runAvg speedWind from/ knotsBaromVisibWave heightAir tempDewpointWater temp
2015-May-28 13:33N 50°20' W 004°10'2 2.0
2015-May-28 12:32N 50°22' W 004°08'0 0.0
2015-May-28 11:32N 50°22' W 004°08'0 0.0
2015-May-28 10:32N 50°22' W 004°08'0 0.0
2015-May-28 09:32N 50°22' W 004°08'1 0.8
2015-May-28 08:33N 50°21' W 004°08'10711.8
2015-May-27 23:33N 48°49' W 005°31'1312.7
2015-May-27 22:33N 48°39' W 005°43'1313.0
2015-May-27 21:33N 48°28' W 005°52'1313.0
2015-May-27 20:33N 48°16' W 006°01'1312.6
2015-May-27 19:33N 48°05' W 006°09'2512.4
2015-May-27 17:33N 47°43' W 006°27'1211.7
2015-May-27 16:33N 47°33' W 006°35'477 9.7
2015-May-25 15:33N 40°09' W 010°39'1010.3
2015-May-25 14:33N 40°00' W 010°46'1110.5
2015-May-25 13:32N 39°51' W 010°53'39 9.7
2015-May-25 09:30N 39°14' W 011°08'8 8.9
2015-May-25 08:33N 39°06' W 011°12'68 7.4
2015-May-24 23:28N 37°59' W 011°25'8 8.4
2015-May-24 22:33N 37°52' W 011°28'31 9.2
2015-May-24 19:09N 37°22' W 011°40'193 7.5
2015-May-23 17:27N 34°19' W 012°55'  

Dump ship's entire track history